Terminal Aerodrome Forecast
Issued by NWS

Home | Current Version | Previous Version | Text Only | Print | Product List | Glossary Off
Versions: 1 2 3 4 5 6 7 8 9 10 11 12 13 14 15 16 17 18 19 20

000
FTUS43 KGRB 222251 AAA
TAFRHI
TAF AMD
KRHI 222251Z 2223/2318 28006KT P6SM VCTS SCT050 BKN090CB
      TEMPO 2223/2224 30015G25KT 2SM TSRA OVC022CB
     FM230300 VRB03KT P6SM SCT150
     FM230900 VRB03KT 3SM BR SCT030
     FM231100 30004KT 6SM BR BKN007
     FM231400 32006KT P6SM BKN014=

USA.gov is the U.S. government's official web portal to all federal, state and local government web resources and services.